sensor_id;sensor_type;location;lat;lon;timestamp;P1;durP1;ratioP1;P2;durP2;ratioP2
3333;SDS011;1679;50.392;8.008;2022-09-24T00:00:44;10.83;;;9.73;;
3333;SDS011;1679;50.392;8.008;2022-09-24T00:03:16;10.07;;;9.27;;
3333;SDS011;1679;50.392;8.008;2022-09-24T00:05:44;10.07;;;9.17;;
3333;SDS011;1679;50.392;8.008;2022-09-24T00:08:10;11.53;;;8.63;;
3333;SDS011;1679;50.392;8.008;2022-09-24T00:10:37;12.10;;;8.97;;
3333;SDS011;1679;50.392;8.008;2022-09-24T00:13:04;10.43;;;9.63;;
3333;SDS011;1679;50.392;8.008;2022-09-24T00:15:34;12.10;;;9.67;;
3333;SDS011;1679;50.392;8.008;2022-09-24T00:18:03;11.10;;;9.90;;
3333;SDS011;1679;50.392;8.008;2022-09-24T00:20:30;10.30;;;9.33;;
3333;SDS011;1679;50.392;8.008;2022-09-24T00:22:57;11.47;;;10.40;;
3333;SDS011;1679;50.392;8.008;2022-09-24T00:25:23;10.70;;;9.80;;
3333;SDS011;1679;50.392;8.008;2022-09-24T00:28:07;10.90;;;10.00;;
3333;SDS011;1679;50.392;8.008;2022-09-24T00:30:33;10.40;;;9.50;;
3333;SDS011;1679;50.392;8.008;2022-09-24T00:32:58;10.97;;;9.23;;
3333;SDS011;1679;50.392;8.008;2022-09-24T00:35:24;11.40;;;10.37;;
3333;SDS011;1679;50.392;8.008;2022-09-24T00:37:49;13.00;;;9.20;;
3333;SDS011;1679;50.392;8.008;2022-09-24T00:40:15;10.47;;;9.57;;
3333;SDS011;1679;50.392;8.008;2022-09-24T00:42:41;10.17;;;9.13;;
3333;SDS011;1679;50.392;8.008;2022-09-24T00:45:08;9.90;;;8.90;;
3333;SDS011;1679;50.392;8.008;2022-09-24T00:47:40;10.43;;;9.33;;
3333;SDS011;1679;50.392;8.008;2022-09-24T00:50:15;10.53;;;9.53;;
3333;SDS011;1679;50.392;8.008;2022-09-24T00:52:54;10.27;;;9.37;;
3333;SDS011;1679;50.392;8.008;2022-09-24T00:55:39;10.37;;;9.47;;
3333;SDS011;1679;50.392;8.008;2022-09-24T00:58:08;9.33;;;8.50;;
3333;SDS011;1679;50.392;8.008;2022-09-24T01:00:37;10.60;;;9.70;;
3333;SDS011;1679;50.392;8.008;2022-09-24T01:03:04;10.40;;;9.37;;
3333;SDS011;1679;50.392;8.008;2022-09-24T01:05:34;11.27;;;10.10;;
3333;SDS011;1679;50.392;8.008;2022-09-24T01:08:01;10.53;;;9.53;;
3333;SDS011;1679;50.392;8.008;2022-09-24T01:13:42;11.20;;;10.20;;
3333;SDS011;1679;50.392;8.008;2022-09-24T01:21:51;11.10;;;9.90;;
3333;SDS011;1679;50.392;8.008;2022-09-24T01:30:16;10.73;;;9.67;;
3333;SDS011;1679;50.392;8.008;2022-09-24T01:33:01;11.07;;;9.97;;
3333;SDS011;1679;50.392;8.008;2022-09-24T01:35:35;10.97;;;9.97;;
3333;SDS011;1679;50.392;8.008;2022-09-24T01:38:46;12.63;;;10.37;;
3333;SDS011;1679;50.392;8.008;2022-09-24T01:40:54;11.23;;;10.27;;
3333;SDS011;1679;50.392;8.008;2022-09-24T01:43:24;11.57;;;10.50;;
3333;SDS011;1679;50.392;8.008;2022-09-24T01:45:52;10.43;;;9.40;;
3333;SDS011;1679;50.392;8.008;2022-09-24T01:48:23;11.27;;;10.20;;
3333;SDS011;1679;50.392;8.008;2022-09-24T01:50:57;11.60;;;10.50;;
3333;SDS011;1679;50.392;8.008;2022-09-24T01:53:32;10.50;;;9.70;;
3333;SDS011;1679;50.392;8.008;2022-09-24T01:56:05;12.33;;;10.83;;
3333;SDS011;1679;50.392;8.008;2022-09-24T01:58:37;11.57;;;10.57;;
3333;SDS011;1679;50.392;8.008;2022-09-24T02:01:11;15.07;;;10.20;;
3333;SDS011;1679;50.392;8.008;2022-09-24T02:03:43;12.87;;;10.57;;
3333;SDS011;1679;50.392;8.008;2022-09-24T02:06:29;11.97;;;9.97;;
3333;SDS011;1679;50.392;8.008;2022-09-24T02:09:01;10.33;;;9.40;;
3333;SDS011;1679;50.392;8.008;2022-09-24T02:11:27;9.00;;;8.30;;
3333;SDS011;1679;50.392;8.008;2022-09-24T02:14:07;14.23;;;11.03;;
3333;SDS011;1679;50.392;8.008;2022-09-24T02:16:43;10.83;;;9.90;;
3333;SDS011;1679;50.392;8.008;2022-09-24T02:19:12;11.90;;;10.80;;
3333;SDS011;1679;50.392;8.008;2022-09-24T02:21:40;10.30;;;9.40;;
3333;SDS011;1679;50.392;8.008;2022-09-24T02:24:13;10.83;;;9.83;;
3333;SDS011;1679;50.392;8.008;2022-09-24T02:26:53;14.43;;;10.97;;
3333;SDS011;1679;50.392;8.008;2022-09-24T02:29:19;11.20;;;10.20;;
3333;SDS011;1679;50.392;8.008;2022-09-24T02:31:46;11.07;;;10.07;;
3333;SDS011;1679;50.392;8.008;2022-09-24T02:34:15;10.93;;;9.73;;
3333;SDS011;1679;50.392;8.008;2022-09-24T02:36:59;11.00;;;10.00;;
3333;SDS011;1679;50.392;8.008;2022-09-24T02:39:35;11.17;;;10.20;;
3333;SDS011;1679;50.392;8.008;2022-09-24T02:42:01;10.97;;;9.97;;
3333;SDS011;1679;50.392;8.008;2022-09-24T02:44:29;10.80;;;9.90;;
3333;SDS011;1679;50.392;8.008;2022-09-24T02:46:58;10.13;;;9.33;;
3333;SDS011;1679;50.392;8.008;2022-09-24T02:49:24;11.30;;;10.10;;
3333;SDS011;1679;50.392;8.008;2022-09-24T02:51:49;10.90;;;9.80;;
3333;SDS011;1679;50.392;8.008;2022-09-24T02:54:15;10.50;;;9.50;;
3333;SDS011;1679;50.392;8.008;2022-09-24T02:56:41;11.50;;;10.10;;
3333;SDS011;1679;50.392;8.008;2022-09-24T02:59:06;11.40;;;10.20;;
3333;SDS011;1679;50.392;8.008;2022-09-24T03:01:32;10.73;;;9.83;;
3333;SDS011;1679;50.392;8.008;2022-09-24T03:03:59;11.23;;;10.13;;
3333;SDS011;1679;50.392;8.008;2022-09-24T03:06:24;10.80;;;9.70;;
3333;SDS011;1679;50.392;8.008;2022-09-24T03:08:50;13.30;;;9.60;;
3333;SDS011;1679;50.392;8.008;2022-09-24T03:11:19;10.57;;;9.33;;
3333;SDS011;1679;50.392;8.008;2022-09-24T03:13:46;11.07;;;10.03;;
3333;SDS011;1679;50.392;8.008;2022-09-24T03:16:12;11.43;;;10.10;;
3333;SDS011;1679;50.392;8.008;2022-09-24T03:18:38;10.40;;;9.47;;
3333;SDS011;1679;50.392;8.008;2022-09-24T03:21:05;11.80;;;9.57;;
3333;SDS011;1679;50.392;8.008;2022-09-24T03:23:32;11.93;;;10.37;;
3333;SDS011;1679;50.392;8.008;2022-09-24T03:25:58;10.93;;;9.90;;
3333;SDS011;1679;50.392;8.008;2022-09-24T03:28:23;10.40;;;9.50;;
3333;SDS011;1679;50.392;8.008;2022-09-24T03:30:49;11.07;;;9.97;;
3333;SDS011;1679;50.392;8.008;2022-09-24T03:33:40;10.53;;;9.53;;
3333;SDS011;1679;50.392;8.008;2022-09-24T03:36:14;10.50;;;9.60;;
3333;SDS011;1679;50.392;8.008;2022-09-24T03:38:43;10.03;;;9.03;;
3333;SDS011;1679;50.392;8.008;2022-09-24T03:41:10;10.50;;;9.60;;
3333;SDS011;1679;50.392;8.008;2022-09-24T03:43:37;11.73;;;9.50;;
3333;SDS011;1679;50.392;8.008;2022-09-24T03:46:04;10.60;;;9.57;;
3333;SDS011;1679;50.392;8.008;2022-09-24T03:48:34;10.67;;;9.67;;
3333;SDS011;1679;50.392;8.008;2022-09-24T03:51:04;9.70;;;8.80;;
3333;SDS011;1679;50.392;8.008;2022-09-24T03:53:31;11.60;;;10.50;;
3333;SDS011;1679;50.392;8.008;2022-09-24T03:55:57;11.80;;;10.27;;
3333;SDS011;1679;50.392;8.008;2022-09-24T03:58:23;11.87;;;9.80;;
3333;SDS011;1679;50.392;8.008;2022-09-24T04:00:53;13.63;;;11.17;;
3333;SDS011;1679;50.392;8.008;2022-09-24T04:03:20;12.33;;;11.03;;
3333;SDS011;1679;50.392;8.008;2022-09-24T04:05:47;12.23;;;10.90;;
3333;SDS011;1679;50.392;8.008;2022-09-24T04:08:15;17.53;;;11.37;;
3333;SDS011;1679;50.392;8.008;2022-09-24T04:10:44;12.47;;;11.37;;
3333;SDS011;1679;50.392;8.008;2022-09-24T04:13:11;13.00;;;10.90;;
3333;SDS011;1679;50.392;8.008;2022-09-24T04:15:37;11.33;;;10.30;;
3333;SDS011;1679;50.392;8.008;2022-09-24T04:18:02;12.40;;;11.30;;
3333;SDS011;1679;50.392;8.008;2022-09-24T04:20:28;11.87;;;10.87;;
3333;SDS011;1679;50.392;8.008;2022-09-24T04:22:54;11.33;;;10.23;;
3333;SDS011;1679;50.392;8.008;2022-09-24T04:25:21;10.87;;;9.83;;
3333;SDS011;1679;50.392;8.008;2022-09-24T04:27:55;10.03;;;8.80;;
3333;SDS011;1679;50.392;8.008;2022-09-24T04:30:25;10.90;;;8.70;;
3333;SDS011;1679;50.392;8.008;2022-09-24T04:32:52;10.37;;;9.20;;
3333;SDS011;1679;50.392;8.008;2022-09-24T04:35:18;11.07;;;9.90;;
3333;SDS011;1679;50.392;8.008;2022-09-24T04:37:45;10.47;;;9.30;;
3333;SDS011;1679;50.392;8.008;2022-09-24T04:40:11;10.13;;;9.23;;
3333;SDS011;1679;50.392;8.008;2022-09-24T04:42:39;10.60;;;9.70;;
3333;SDS011;1679;50.392;8.008;2022-09-24T04:45:06;10.87;;;9.77;;
3333;SDS011;1679;50.392;8.008;2022-09-24T04:47:33;11.40;;;10.30;;
3333;SDS011;1679;50.392;8.008;2022-09-24T04:49:59;11.63;;;10.37;;
3333;SDS011;1679;50.392;8.008;2022-09-24T04:52:26;10.60;;;9.43;;
3333;SDS011;1679;50.392;8.008;2022-09-24T04:54:55;10.10;;;9.20;;
3333;SDS011;1679;50.392;8.008;2022-09-24T04:57:23;11.73;;;10.27;;
3333;SDS011;1679;50.392;8.008;2022-09-24T04:59:48;10.63;;;9.70;;
3333;SDS011;1679;50.392;8.008;2022-09-24T05:02:14;10.60;;;9.60;;
3333;SDS011;1679;50.392;8.008;2022-09-24T05:04:40;10.53;;;9.23;;
3333;SDS011;1679;50.392;8.008;2022-09-24T05:07:07;10.70;;;9.73;;
3333;SDS011;1679;50.392;8.008;2022-09-24T05:09:33;10.90;;;9.83;;
3333;SDS011;1679;50.392;8.008;2022-09-24T05:11:59;11.80;;;10.60;;
3333;SDS011;1679;50.392;8.008;2022-09-24T05:14:25;9.90;;;8.90;;
3333;SDS011;1679;50.392;8.008;2022-09-24T05:16:51;9.97;;;8.97;;
3333;SDS011;1679;50.392;8.008;2022-09-24T05:19:17;11.43;;;10.30;;
3333;SDS011;1679;50.392;8.008;2022-09-24T05:21:43;12.80;;;10.00;;
3333;SDS011;1679;50.392;8.008;2022-09-24T05:24:09;11.30;;;9.83;;
3333;SDS011;1679;50.392;8.008;2022-09-24T05:26:34;10.90;;;9.40;;
3333;SDS011;1679;50.392;8.008;2022-09-24T05:29:18;14.20;;;8.73;;
3333;SDS011;1679;50.392;8.008;2022-09-24T05:31:44;9.70;;;8.80;;
3333;SDS011;1679;50.392;8.008;2022-09-24T05:34:09;11.27;;;9.70;;
3333;SDS011;1679;50.392;8.008;2022-09-24T05:36:35;11.00;;;8.67;;
3333;SDS011;1679;50.392;8.008;2022-09-24T05:39:01;10.40;;;9.47;;
3333;SDS011;1679;50.392;8.008;2022-09-24T05:41:26;15.33;;;10.87;;
3333;SDS011;1679;50.392;8.008;2022-09-24T05:43:52;11.13;;;10.03;;
3333;SDS011;1679;50.392;8.008;2022-09-24T05:46:18;9.53;;;8.60;;
3333;SDS011;1679;50.392;8.008;2022-09-24T05:48:43;9.00;;;8.13;;
3333;SDS011;1679;50.392;8.008;2022-09-24T05:51:10;9.10;;;6.93;;
3333;SDS011;1679;50.392;8.008;2022-09-24T05:53:35;8.43;;;7.53;;
3333;SDS011;1679;50.392;8.008;2022-09-24T05:56:01;14.50;;;8.53;;
3333;SDS011;1679;50.392;8.008;2022-09-24T05:58:27;9.20;;;8.23;;
3333;SDS011;1679;50.392;8.008;2022-09-24T06:00:52;9.60;;;8.70;;
3333;SDS011;1679;50.392;8.008;2022-09-24T06:03:18;13.40;;;8.80;;
3333;SDS011;1679;50.392;8.008;2022-09-24T06:05:45;14.33;;;12.93;;
3333;SDS011;1679;50.392;8.008;2022-09-24T06:08:16;21.57;;;14.40;;
3333;SDS011;1679;50.392;8.008;2022-09-24T06:10:43;18.03;;;14.17;;
3333;SDS011;1679;50.392;8.008;2022-09-24T06:13:10;14.33;;;10.07;;
3333;SDS011;1679;50.392;8.008;2022-09-24T06:15:39;15.37;;;10.23;;
3333;SDS011;1679;50.392;8.008;2022-09-24T06:18:06;12.50;;;10.37;;
3333;SDS011;1679;50.392;8.008;2022-09-24T06:20:32;13.20;;;11.47;;
3333;SDS011;1679;50.392;8.008;2022-09-24T06:22:57;12.90;;;10.60;;
3333;SDS011;1679;50.392;8.008;2022-09-24T06:25:23;10.67;;;9.43;;
3333;SDS011;1679;50.392;8.008;2022-09-24T06:28:00;11.47;;;10.27;;
3333;SDS011;1679;50.392;8.008;2022-09-24T06:30:44;11.27;;;9.60;;
3333;SDS011;1679;50.392;8.008;2022-09-24T06:33:11;10.93;;;9.93;;
3333;SDS011;1679;50.392;8.008;2022-09-24T06:35:38;12.00;;;10.70;;
3333;SDS011;1679;50.392;8.008;2022-09-24T06:38:05;11.63;;;10.47;;
3333;SDS011;1679;50.392;8.008;2022-09-24T06:40:33;11.20;;;10.10;;
3333;SDS011;1679;50.392;8.008;2022-09-24T06:42:58;10.80;;;9.70;;
3333;SDS011;1679;50.392;8.008;2022-09-24T06:45:24;12.83;;;11.60;;
3333;SDS011;1679;50.392;8.008;2022-09-24T06:47:51;13.00;;;10.03;;
3333;SDS011;1679;50.392;8.008;2022-09-24T06:50:18;10.03;;;9.23;;
3333;SDS011;1679;50.392;8.008;2022-09-24T06:52:44;11.60;;;10.00;;
3333;SDS011;1679;50.392;8.008;2022-09-24T06:55:09;13.07;;;10.40;;
3333;SDS011;1679;50.392;8.008;2022-09-24T06:57:35;10.50;;;9.60;;
3333;SDS011;1679;50.392;8.008;2022-09-24T07:00:00;9.63;;;8.87;;
3333;SDS011;1679;50.392;8.008;2022-09-24T07:02:26;11.73;;;9.90;;
3333;SDS011;1679;50.392;8.008;2022-09-24T07:04:52;10.67;;;9.60;;
3333;SDS011;1679;50.392;8.008;2022-09-24T07:07:17;10.23;;;9.33;;
3333;SDS011;1679;50.392;8.008;2022-09-24T07:09:59;9.73;;;8.80;;
3333;SDS011;1679;50.392;8.008;2022-09-24T07:12:27;10.70;;;9.70;;
3333;SDS011;1679;50.392;8.008;2022-09-24T07:14:54;10.30;;;9.40;;
3333;SDS011;1679;50.392;8.008;2022-09-24T07:17:21;10.17;;;9.17;;
3333;SDS011;1679;50.392;8.008;2022-09-24T07:19:47;9.53;;;8.83;;
3333;SDS011;1679;50.392;8.008;2022-09-24T07:22:13;9.90;;;9.00;;
3333;SDS011;1679;50.392;8.008;2022-09-24T07:24:38;9.87;;;8.83;;
3333;SDS011;1679;50.392;8.008;2022-09-24T07:27:04;9.13;;;8.33;;
3333;SDS011;1679;50.392;8.008;2022-09-24T07:29:30;9.30;;;8.50;;
3333;SDS011;1679;50.392;8.008;2022-09-24T07:31:56;10.37;;;9.37;;
3333;SDS011;1679;50.392;8.008;2022-09-24T07:34:22;10.20;;;9.30;;
3333;SDS011;1679;50.392;8.008;2022-09-24T07:36:47;9.93;;;9.13;;
3333;SDS011;1679;50.392;8.008;2022-09-24T07:39:13;10.13;;;9.13;;
3333;SDS011;1679;50.392;8.008;2022-09-24T07:41:38;9.90;;;9.20;;
3333;SDS011;1679;50.392;8.008;2022-09-24T07:44:06;10.70;;;9.87;;
3333;SDS011;1679;50.392;8.008;2022-09-24T07:46:32;13.60;;;12.10;;
3333;SDS011;1679;50.392;8.008;2022-09-24T07:48:58;10.20;;;9.40;;
3333;SDS011;1679;50.392;8.008;2022-09-24T07:51:24;11.63;;;10.57;;
3333;SDS011;1679;50.392;8.008;2022-09-24T07:53:52;12.80;;;11.17;;
3333;SDS011;1679;50.392;8.008;2022-09-24T07:56:21;10.83;;;9.90;;
3333;SDS011;1679;50.392;8.008;2022-09-24T07:58:48;12.93;;;10.30;;
3333;SDS011;1679;50.392;8.008;2022-09-24T08:01:15;11.93;;;10.93;;
3333;SDS011;1679;50.392;8.008;2022-09-24T08:03:42;11.40;;;10.40;;
3333;SDS011;1679;50.392;8.008;2022-09-24T08:06:08;10.83;;;9.83;;
3333;SDS011;1679;50.392;8.008;2022-09-24T08:08:33;10.20;;;9.37;;
3333;SDS011;1679;50.392;8.008;2022-09-24T08:11:03;12.30;;;10.20;;
3333;SDS011;1679;50.392;8.008;2022-09-24T08:13:32;10.30;;;9.40;;
3333;SDS011;1679;50.392;8.008;2022-09-24T08:15:58;11.33;;;10.43;;
3333;SDS011;1679;50.392;8.008;2022-09-24T08:18:25;11.77;;;10.77;;
3333;SDS011;1679;50.392;8.008;2022-09-24T08:20:51;10.07;;;9.27;;
3333;SDS011;1679;50.392;8.008;2022-09-24T08:23:17;10.17;;;9.33;;
3333;SDS011;1679;50.392;8.008;2022-09-24T08:25:42;9.10;;;8.40;;
3333;SDS011;1679;50.392;8.008;2022-09-24T08:28:08;10.43;;;9.40;;
3333;SDS011;1679;50.392;8.008;2022-09-24T08:30:40;10.40;;;8.63;;
3333;SDS011;1679;50.392;8.008;2022-09-24T08:33:06;10.80;;;9.83;;
3333;SDS011;1679;50.392;8.008;2022-09-24T08:35:33;11.87;;;10.87;;
3333;SDS011;1679;50.392;8.008;2022-09-24T08:37:59;10.63;;;9.50;;
3333;SDS011;1679;50.392;8.008;2022-09-24T08:40:26;10.93;;;10.03;;
3333;SDS011;1679;50.392;8.008;2022-09-24T08:43:18;14.47;;;13.07;;
3333;SDS011;1679;50.392;8.008;2022-09-24T08:45:50;16.50;;;12.20;;
3333;SDS011;1679;50.392;8.008;2022-09-24T08:48:38;13.43;;;12.13;;
3333;SDS011;1679;50.392;8.008;2022-09-24T08:51:07;13.10;;;11.90;;
3333;SDS011;1679;50.392;8.008;2022-09-24T08:54:01;13.10;;;11.90;;
3333;SDS011;1679;50.392;8.008;2022-09-24T08:56:29;13.10;;;11.90;;
3333;SDS011;1679;50.392;8.008;2022-09-24T08:58:59;13.30;;;12.10;;
3333;SDS011;1679;50.392;8.008;2022-09-24T09:04:15;11.80;;;10.73;;
3333;SDS011;1679;50.392;8.008;2022-09-24T09:09:42;15.57;;;14.07;;
3333;SDS011;1679;50.392;8.008;2022-09-24T09:12:20;10.60;;;9.70;;
3333;SDS011;1679;50.392;8.008;2022-09-24T09:15:00;11.33;;;10.40;;
3333;SDS011;1679;50.392;8.008;2022-09-24T09:17:39;14.07;;;12.63;;
3333;SDS011;1679;50.392;8.008;2022-09-24T09:20:14;13.80;;;12.50;;
3333;SDS011;1679;50.392;8.008;2022-09-24T09:22:47;14.27;;;12.97;;
3333;SDS011;1679;50.392;8.008;2022-09-24T09:25:21;13.40;;;12.30;;
3333;SDS011;1679;50.392;8.008;2022-09-24T09:27:50;12.40;;;11.30;;
3333;SDS011;1679;50.392;8.008;2022-09-24T09:30:25;14.50;;;12.83;;
3333;SDS011;1679;50.392;8.008;2022-09-24T09:32:58;13.50;;;12.13;;
3333;SDS011;1679;50.392;8.008;2022-09-24T09:35:54;13.43;;;12.33;;
3333;SDS011;1679;50.392;8.008;2022-09-24T09:38:41;14.47;;;13.00;;
3333;SDS011;1679;50.392;8.008;2022-09-24T09:46:48;14.57;;;13.10;;
3333;SDS011;1679;50.392;8.008;2022-09-24T09:49:30;15.33;;;14.03;;
3333;SDS011;1679;50.392;8.008;2022-09-24T09:52:00;13.33;;;12.00;;
3333;SDS011;1679;50.392;8.008;2022-09-24T09:54:35;13.60;;;12.33;;
3333;SDS011;1679;50.392;8.008;2022-09-24T09:57:02;14.07;;;12.73;;
3333;SDS011;1679;50.392;8.008;2022-09-24T09:59:30;17.00;;;15.40;;
3333;SDS011;1679;50.392;8.008;2022-09-24T10:01:58;16.50;;;14.37;;
3333;SDS011;1679;50.392;8.008;2022-09-24T10:04:34;13.80;;;12.40;;
3333;SDS011;1679;50.392;8.008;2022-09-24T10:07:09;14.30;;;12.90;;
3333;SDS011;1679;50.392;8.008;2022-09-24T10:09:42;18.40;;;16.70;;
3333;SDS011;1679;50.392;8.008;2022-09-24T10:12:14;14.33;;;12.90;;
3333;SDS011;1679;50.392;8.008;2022-09-24T10:15:04;14.03;;;12.83;;
3333;SDS011;1679;50.392;8.008;2022-09-24T10:17:45;14.23;;;12.90;;
3333;SDS011;1679;50.392;8.008;2022-09-24T10:22:56;13.77;;;12.40;;
3333;SDS011;1679;50.392;8.008;2022-09-24T10:25:27;14.17;;;12.73;;
3333;SDS011;1679;50.392;8.008;2022-09-24T10:27:56;13.23;;;11.93;;
3333;SDS011;1679;50.392;8.008;2022-09-24T10:31:16;12.37;;;11.33;;
3333;SDS011;1679;50.392;8.008;2022-09-24T10:33:41;12.73;;;11.40;;
3333;SDS011;1679;50.392;8.008;2022-09-24T10:36:16;11.70;;;10.50;;
3333;SDS011;1679;50.392;8.008;2022-09-24T10:38:44;12.90;;;11.90;;
3333;SDS011;1679;50.392;8.008;2022-09-24T10:41:14;13.30;;;12.10;;
3333;SDS011;1679;50.392;8.008;2022-09-24T10:43:50;12.43;;;11.20;;
3333;SDS011;1679;50.392;8.008;2022-09-24T10:46:39;11.10;;;10.10;;
3333;SDS011;1679;50.392;8.008;2022-09-24T10:52:11;10.00;;;9.10;;
3333;SDS011;1679;50.392;8.008;2022-09-24T10:54:57;12.67;;;11.67;;
3333;SDS011;1679;50.392;8.008;2022-09-24T10:57:29;11.10;;;10.07;;
3333;SDS011;1679;50.392;8.008;2022-09-24T11:00:00;10.40;;;9.60;;
3333;SDS011;1679;50.392;8.008;2022-09-24T11:05:20;10.57;;;9.57;;
3333;SDS011;1679;50.392;8.008;2022-09-24T11:16:38;9.13;;;8.37;;
3333;SDS011;1679;50.392;8.008;2022-09-24T11:25:24;7.17;;;6.37;;
3333;SDS011;1679;50.392;8.008;2022-09-24T11:28:15;6.00;;;5.50;;
3333;SDS011;1679;50.392;8.008;2022-09-24T11:50:44;5.00;;;4.60;;
3333;SDS011;1679;50.392;8.008;2022-09-24T11:53:43;4.90;;;4.50;;
3333;SDS011;1679;50.392;8.008;2022-09-24T11:59:06;4.57;;;4.27;;
3333;SDS011;1679;50.392;8.008;2022-09-24T12:01:54;7.30;;;4.70;;
3333;SDS011;1679;50.392;8.008;2022-09-24T12:07:19;4.70;;;4.30;;
3333;SDS011;1679;50.392;8.008;2022-09-24T12:10:06;4.63;;;4.33;;
3333;SDS011;1679;50.392;8.008;2022-09-24T12:15:49;4.27;;;3.87;;
3333;SDS011;1679;50.392;8.008;2022-09-24T12:18:22;5.10;;;4.07;;
3333;SDS011;1679;50.392;8.008;2022-09-24T12:20:50;5.50;;;5.10;;
3333;SDS011;1679;50.392;8.008;2022-09-24T12:23:24;4.10;;;3.80;;
3333;SDS011;1679;50.392;8.008;2022-09-24T12:25:53;4.17;;;3.83;;
3333;SDS011;1679;50.392;8.008;2022-09-24T12:28:21;4.07;;;3.67;;
3333;SDS011;1679;50.392;8.008;2022-09-24T12:34:21;3.60;;;3.40;;
3333;SDS011;1679;50.392;8.008;2022-09-24T12:37:09;3.43;;;3.17;;
3333;SDS011;1679;50.392;8.008;2022-09-24T12:39:42;3.97;;;3.77;;
3333;SDS011;1679;50.392;8.008;2022-09-24T12:42:15;4.00;;;3.70;;
3333;SDS011;1679;50.392;8.008;2022-09-24T12:44:45;3.50;;;3.20;;
3333;SDS011;1679;50.392;8.008;2022-09-24T12:47:20;4.47;;;3.70;;
3333;SDS011;1679;50.392;8.008;2022-09-24T12:49:49;3.93;;;3.63;;
3333;SDS011;1679;50.392;8.008;2022-09-24T12:52:26;4.53;;;4.17;;
3333;SDS011;1679;50.392;8.008;2022-09-24T12:54:59;4.00;;;3.60;;
3333;SDS011;1679;50.392;8.008;2022-09-24T12:57:29;4.13;;;3.77;;
3333;SDS011;1679;50.392;8.008;2022-09-24T13:00:00;4.13;;;3.73;;
3333;SDS011;1679;50.392;8.008;2022-09-24T13:02:43;4.40;;;4.10;;
3333;SDS011;1679;50.392;8.008;2022-09-24T13:05:15;4.07;;;3.73;;
3333;SDS011;1679;50.392;8.008;2022-09-24T13:07:59;4.10;;;3.80;;
3333;SDS011;1679;50.392;8.008;2022-09-24T13:10:28;4.23;;;3.73;;
3333;SDS011;1679;50.392;8.008;2022-09-24T13:12:59;4.23;;;3.83;;
3333;SDS011;1679;50.392;8.008;2022-09-24T13:15:33;4.83;;;4.43;;
3333;SDS011;1679;50.392;8.008;2022-09-24T13:20:38;5.40;;;4.90;;
3333;SDS011;1679;50.392;8.008;2022-09-24T13:25:54;4.60;;;4.13;;
3333;SDS011;1679;50.392;8.008;2022-09-24T13:28:22;4.23;;;3.93;;
3333;SDS011;1679;50.392;8.008;2022-09-24T13:31:01;7.00;;;4.60;;
3333;SDS011;1679;50.392;8.008;2022-09-24T13:33:46;4.53;;;4.13;;
3333;SDS011;1679;50.392;8.008;2022-09-24T13:36:17;4.80;;;4.40;;
3333;SDS011;1679;50.392;8.008;2022-09-24T13:41:21;4.17;;;3.97;;
3333;SDS011;1679;50.392;8.008;2022-09-24T13:44:06;3.50;;;3.20;;
3333;SDS011;1679;50.392;8.008;2022-09-24T13:46:57;4.73;;;4.13;;
3333;SDS011;1679;50.392;8.008;2022-09-24T13:49:28;3.83;;;3.33;;
3333;SDS011;1679;50.392;8.008;2022-09-24T13:52:05;3.83;;;3.50;;
3333;SDS011;1679;50.392;8.008;2022-09-24T13:54:41;6.23;;;3.90;;
3333;SDS011;1679;50.392;8.008;2022-09-24T13:57:14;7.00;;;4.20;;
3333;SDS011;1679;50.392;8.008;2022-09-24T13:59:47;4.43;;;4.07;;
3333;SDS011;1679;50.392;8.008;2022-09-24T14:02:20;4.53;;;3.73;;
3333;SDS011;1679;50.392;8.008;2022-09-24T14:04:52;4.50;;;4.10;;
3333;SDS011;1679;50.392;8.008;2022-09-24T14:07:22;4.57;;;4.20;;
3333;SDS011;1679;50.392;8.008;2022-09-24T14:09:59;3.87;;;3.33;;
3333;SDS011;1679;50.392;8.008;2022-09-24T14:12:30;16.10;;;11.27;;
3333;SDS011;1679;50.392;8.008;2022-09-24T14:14:55;9.03;;;6.37;;
3333;SDS011;1679;50.392;8.008;2022-09-24T14:17:22;11.00;;;10.10;;
3333;SDS011;1679;50.392;8.008;2022-09-24T14:19:52;7.30;;;6.70;;
3333;SDS011;1679;50.392;8.008;2022-09-24T14:22:20;6.10;;;5.53;;
3333;SDS011;1679;50.392;8.008;2022-09-24T14:27:26;6.80;;;6.10;;
3333;SDS011;1679;50.392;8.008;2022-09-24T14:30:02;4.53;;;4.13;;
3333;SDS011;1679;50.392;8.008;2022-09-24T14:32:36;4.80;;;4.27;;
3333;SDS011;1679;50.392;8.008;2022-09-24T14:37:44;3.63;;;3.43;;
3333;SDS011;1679;50.392;8.008;2022-09-24T14:40:16;3.43;;;3.20;;
3333;SDS011;1679;50.392;8.008;2022-09-24T14:42:52;5.23;;;3.10;;
3333;SDS011;1679;50.392;8.008;2022-09-24T14:45:26;5.10;;;4.40;;
3333;SDS011;1679;50.392;8.008;2022-09-24T14:50:41;4.53;;;4.17;;
3333;SDS011;1679;50.392;8.008;2022-09-24T14:55:56;3.30;;;3.10;;
3333;SDS011;1679;50.392;8.008;2022-09-24T15:00:54;3.80;;;3.60;;
3333;SDS011;1679;50.392;8.008;2022-09-24T15:03:31;3.43;;;3.10;;
3333;SDS011;1679;50.392;8.008;2022-09-24T15:08:37;4.13;;;3.10;;
3333;SDS011;1679;50.392;8.008;2022-09-24T15:11:03;3.23;;;2.97;;
3333;SDS011;1679;50.392;8.008;2022-09-24T15:13:31;4.00;;;2.70;;
3333;SDS011;1679;50.392;8.008;2022-09-24T15:16:05;4.13;;;3.33;;
3333;SDS011;1679;50.392;8.008;2022-09-24T15:18:42;5.00;;;3.77;;
3333;SDS011;1679;50.392;8.008;2022-09-24T15:21:08;3.93;;;3.63;;
3333;SDS011;1679;50.392;8.008;2022-09-24T15:23:35;3.63;;;3.33;;
3333;SDS011;1679;50.392;8.008;2022-09-24T15:26:01;4.30;;;4.03;;
3333;SDS011;1679;50.392;8.008;2022-09-24T15:28:27;3.87;;;3.57;;
3333;SDS011;1679;50.392;8.008;2022-09-24T15:30:54;5.07;;;3.80;;
3333;SDS011;1679;50.392;8.008;2022-09-24T15:33:20;5.87;;;3.40;;
3333;SDS011;1679;50.392;8.008;2022-09-24T15:35:46;4.80;;;3.90;;
3333;SDS011;1679;50.392;8.008;2022-09-24T15:38:15;3.70;;;3.50;;
3333;SDS011;1679;50.392;8.008;2022-09-24T15:40:42;4.23;;;3.20;;
3333;SDS011;1679;50.392;8.008;2022-09-24T15:43:11;4.40;;;3.80;;
3333;SDS011;1679;50.392;8.008;2022-09-24T15:45:43;5.97;;;4.00;;
3333;SDS011;1679;50.392;8.008;2022-09-24T15:48:09;4.70;;;4.00;;
3333;SDS011;1679;50.392;8.008;2022-09-24T15:50:35;4.30;;;4.00;;
3333;SDS011;1679;50.392;8.008;2022-09-24T15:53:03;4.43;;;4.23;;
3333;SDS011;1679;50.392;8.008;2022-09-24T15:55:29;4.73;;;4.30;;
3333;SDS011;1679;50.392;8.008;2022-09-24T15:57:55;5.40;;;4.90;;
3333;SDS011;1679;50.392;8.008;2022-09-24T16:00:22;5.33;;;4.90;;
3333;SDS011;1679;50.392;8.008;2022-09-24T16:02:50;5.60;;;5.20;;
3333;SDS011;1679;50.392;8.008;2022-09-24T16:05:18;5.00;;;4.60;;
3333;SDS011;1679;50.392;8.008;2022-09-24T16:07:44;6.80;;;4.37;;
3333;SDS011;1679;50.392;8.008;2022-09-24T16:10:10;5.07;;;4.50;;
3333;SDS011;1679;50.392;8.008;2022-09-24T16:12:37;5.47;;;4.90;;
3333;SDS011;1679;50.392;8.008;2022-09-24T16:15:04;4.30;;;4.00;;
3333;SDS011;1679;50.392;8.008;2022-09-24T16:17:30;4.73;;;4.23;;
3333;SDS011;1679;50.392;8.008;2022-09-24T16:19:56;7.73;;;6.93;;
3333;SDS011;1679;50.392;8.008;2022-09-24T16:22:21;6.33;;;5.40;;
3333;SDS011;1679;50.392;8.008;2022-09-24T16:24:47;4.10;;;3.80;;
3333;SDS011;1679;50.392;8.008;2022-09-24T16:27:12;3.97;;;3.43;;
3333;SDS011;1679;50.392;8.008;2022-09-24T16:29:38;5.00;;;4.70;;
3333;SDS011;1679;50.392;8.008;2022-09-24T16:32:03;4.40;;;4.10;;
3333;SDS011;1679;50.392;8.008;2022-09-24T16:34:29;6.93;;;5.30;;
3333;SDS011;1679;50.392;8.008;2022-09-24T16:36:54;7.63;;;6.90;;
3333;SDS011;1679;50.392;8.008;2022-09-24T16:39:20;10.73;;;5.50;;
3333;SDS011;1679;50.392;8.008;2022-09-24T16:41:49;6.00;;;5.47;;
3333;SDS011;1679;50.392;8.008;2022-09-24T16:44:15;7.60;;;6.90;;
3333;SDS011;1679;50.392;8.008;2022-09-24T16:46:41;7.40;;;6.80;;
3333;SDS011;1679;50.392;8.008;2022-09-24T16:49:07;7.47;;;6.80;;
3333;SDS011;1679;50.392;8.008;2022-09-24T16:51:33;11.07;;;9.90;;
3333;SDS011;1679;50.392;8.008;2022-09-24T16:53:58;7.40;;;6.80;;
3333;SDS011;1679;50.392;8.008;2022-09-24T16:56:24;8.73;;;7.80;;
3333;SDS011;1679;50.392;8.008;2022-09-24T16:58:50;8.77;;;7.87;;
3333;SDS011;1679;50.392;8.008;2022-09-24T17:01:17;13.27;;;8.30;;
3333;SDS011;1679;50.392;8.008;2022-09-24T17:03:44;10.23;;;9.10;;
3333;SDS011;1679;50.392;8.008;2022-09-24T17:06:21;10.60;;;9.60;;